Time;durP1;ratioP1;P1;durP2;ratioP2;P2;SDS_P1;SDS_P2;PMS_P1;PMS_P2;Temp;Humidity;BMP_temperature;BMP_pressure;BME280_temperature;BME280_humidity;BME280_pressure;Samples;Min_cycle;Max_cycle;Signal;HPM_P1;HPM_P2
2019/05/22 00:01:04;;;;;;;6.8;6.2;;;;;;;;;;;;;
2019/05/22 00:03:26;;;;;;;7.8;7.1;;;;;;;;;;;;;
2019/05/22 00:05:49;;;;;;;7.7;7;;;;;;;;;;;;;
2019/05/22 00:08:14;;;;;;;7.5;6.8;;;;;;;;;;;;;
2019/05/22 00:10:40;;;;;;;8.1;7.3;;;;;;;;;;;;;
2019/05/22 00:13:07;;;;;;;8.6;7.8;;;;;;;;;;;;;
2019/05/22 00:15:30;;;;;;;8.2;7.4;;;;;;;;;;;;;
2019/05/22 00:17:55;;;;;;;8.9;8;;;;;;;;;;;;;
2019/05/22 00:20:20;;;;;;;8.2;7.4;;;;;;;;;;;;;
2019/05/22 00:22:46;;;;;;;9.4;8;;;;;;;;;;;;;
2019/05/22 00:25:15;;;;;;;8;7.2;;;;;;;;;;;;;
2019/05/22 00:27:37;;;;;;;8.2;7.4;;;;;;;;;;;;;
2019/05/22 00:30:02;;;;;;;9;8.1;;;;;;;;;;;;;
2019/05/22 00:32:27;;;;;;;9.1;7.9;;;;;;;;;;;;;
2019/05/22 00:34:54;;;;;;;8.3;7.3;;;;;;;;;;;;;
2019/05/22 00:37:18;;;;;;;9.1;8.2;;;;;;;;;;;;;
2019/05/22 00:39:43;;;;;;;9.6;8.6;;;;;;;;;;;;;
2019/05/22 00:42:08;;;;;;;8.9;8.1;;;;;;;;;;;;;
2019/05/22 00:44:33;;;;;;;9.3;8.1;;;;;;;;;;;;;
2019/05/22 00:47:10;;;;;;;9.8;8.8;;;;;;;;;;;;;
2019/05/22 00:49:30;;;;;;;10.3;9.1;;;;;;;;;;;;;
2019/05/22 00:52:17;;;;;;;10.2;9.2;;;;;;;;;;;;;
2019/05/22 00:54:21;;;;;;;13.3;11.1;;;;;;;;;;;;;
2019/05/22 00:57:04;;;;;;;14;12;;;;;;;;;;;;;
2019/05/22 00:59:18;;;;;;;13.8;12.3;;;;;;;;;;;;;
2019/05/22 01:01:44;;;;;;;14.1;12.6;;;;;;;;;;;;;
2019/05/22 02:23:32;;;;;;;44.9;35;;;;;;;;;;;;;
2019/05/22 02:25:57;;;;;;;44.2;35.1;;;;;;;;;;;;;
2019/05/22 02:28:22;;;;;;;47.4;36.7;;;;;;;;;;;;;
2019/05/22 02:30:48;;;;;;;40.9;34;;;;;;;;;;;;;
2019/05/22 02:33:13;;;;;;;43.2;35.8;;;;;;;;;;;;;
2019/05/22 02:35:38;;;;;;;43.2;35.2;;;;;;;;;;;;;
2019/05/22 02:38:03;;;;;;;44.4;35.6;;;;;;;;;;;;;
2019/05/22 02:40:29;;;;;;;46.3;36.6;;;;;;;;;;;;;
2019/05/22 02:42:54;;;;;;;51.2;37.5;;;;;;;;;;;;;
2019/05/22 02:45:19;;;;;;;49.5;39;;;;;;;;;;;;;
2019/05/22 02:47:44;;;;;;;50.6;38.8;;;;;;;;;;;;;
2019/05/22 02:50:09;;;;;;;48.9;38.2;;;;;;;;;;;;;
2019/05/22 02:52:34;;;;;;;49.4;39.3;;;;;;;;;;;;;
2019/05/22 02:54:59;;;;;;;48;37.5;;;;;;;;;;;;;
2019/05/22 02:57:25;;;;;;;51.6;40.2;;;;;;;;;;;;;
2019/05/22 02:59:50;;;;;;;50;38.8;;;;;;;;;;;;;
2019/05/22 03:02:15;;;;;;;54.6;41.6;;;;;;;;;;;;;
2019/05/22 03:04:40;;;;;;;55.7;42.9;;;;;;;;;;;;;
2019/05/22 03:07:05;;;;;;;61.8;44.3;;;;;;;;;;;;;
2019/05/22 03:09:30;;;;;;;63.2;47.3;;;;;;;;;;;;;
2019/05/22 03:11:56;;;;;;;65.5;48.1;;;;;;;;;;;;;
2019/05/22 03:14:21;;;;;;;72.3;50;;;;;;;;;;;;;
2019/05/22 03:16:45;;;;;;;70.7;50.8;;;;;;;;;;;;;
2019/05/22 03:19:10;;;;;;;67;49.7;;;;;;;;;;;;;
2019/05/22 03:21:36;;;;;;;64.5;47.9;;;;;;;;;;;;;
2019/05/22 03:24:01;;;;;;;60.8;47.2;;;;;;;;;;;;;
2019/05/22 03:26:26;;;;;;;68.4;51;;;;;;;;;;;;;
2019/05/22 03:28:51;;;;;;;65.3;49.3;;;;;;;;;;;;;
2019/05/22 03:31:17;;;;;;;73.3;52;;;;;;;;;;;;;
2019/05/22 03:33:41;;;;;;;75.2;53;;;;;;;;;;;;;
2019/05/22 03:36:06;;;;;;;79.4;54.8;;;;;;;;;;;;;
2019/05/22 03:38:32;;;;;;;76;54.3;;;;;;;;;;;;;
2019/05/22 03:40:57;;;;;;;77.8;54.1;;;;;;;;;;;;;
2019/05/22 03:43:23;;;;;;;72;52.2;;;;;;;;;;;;;
2019/05/22 03:45:48;;;;;;;81.4;55.5;;;;;;;;;;;;;
2019/05/22 03:48:13;;;;;;;89;57.2;;;;;;;;;;;;;
2019/05/22 03:50:38;;;;;;;81.4;55.2;;;;;;;;;;;;;
2019/05/22 03:53:04;;;;;;;80.6;54.4;;;;;;;;;;;;;
2019/05/22 03:55:28;;;;;;;82.9;55.5;;;;;;;;;;;;;
2019/05/22 03:57:53;;;;;;;92;57.5;;;;;;;;;;;;;
2019/05/22 04:02:26;;;;;;;83.5;55.3;;;;;;;11.38;91.9375;961.9465;;;;
2019/05/22 04:04:51;;;;;;;90.1;57;;;;;;;11.41;91.43066;961.9547;;;;
2019/05/22 04:07:18;;;;;;;94;58;;;;;;;11.3;91.8291;961.9691;;;;
2019/05/22 04:09:41;;;;;;;86.2;55.2;;;;;;;11.36;91.92188;961.9785;;;;
2019/05/22 04:12:07;;;;;;;88.2;56.1;;;;;;;11.44;91.5293;962.0338;;;;
2019/05/22 04:14:33;;;;;;;84.2;54.9;;;;;;;11.46;91.74512;961.9878;;;;
2019/05/22 04:16:58;;;;;;;88.3;55.2;;;;;;;11.33;92.16113;962.0042;;;;
2019/05/22 04:19:24;;;;;;;96;56.4;;;;;;;11.42;91.99121;962.1142;;;;
2019/05/22 04:21:49;;;;;;;88.6;53.4;;;;;;;11.45;91.69336;962.0676;;;;
2019/05/22 04:24:15;;;;;;;79.8;51.2;;;;;;;11.42;91.71094;962.1442;;;;
2019/05/22 04:26:40;;;;;;;87;53.1;;;;;;;11.46;91.88379;962.1225;;;;
2019/05/22 04:29:05;;;;;;;83;51.8;;;;;;;11.51;92.15234;962.1418;;;;
2019/05/22 04:31:30;;;;;;;81.6;51.5;;;;;;;11.6;91.41113;962.1392;;;;
2019/05/22 04:33:55;;;;;;;76.1;49.4;;;;;;;11.5;91.77441;962.1605;;;;
2019/05/22 04:36:21;;;;;;;75.7;48.1;;;;;;;11.64;91.19824;962.2202;;;;
2019/05/22 04:38:46;;;;;;;81.4;49.2;;;;;;;11.7;91.13965;962.2525;;;;
2019/05/22 04:41:11;;;;;;;72.4;47.4;;;;;;;11.57;91.65137;962.2338;;;;
2019/05/22 04:43:36;;;;;;;73.4;46.4;;;;;;;11.64;91.73438;962.2511;;;;
2019/05/22 04:46:02;;;;;;;73;47.1;;;;;;;11.63;91.54688;962.2212;;;;
2019/05/22 04:48:28;;;;;;;69.3;45.9;;;;;;;11.74;91.30078;962.2855;;;;
2019/05/22 04:50:52;;;;;;;66.7;45.9;;;;;;;11.71;90.9209;962.2764;;;;
2019/05/22 04:53:17;;;;;;;72.6;47.6;;;;;;;11.75;90.90527;962.2456;;;;
2019/05/22 04:55:42;;;;;;;69.8;46.4;;;;;;;11.75;90.33203;962.2845;;;;
2019/05/22 04:58:10;;;;;;;67.4;45.7;;;;;;;11.72;89.81055;962.3233;;;;
2019/05/22 05:00:33;;;;;;;65.5;46.5;;;;;;;11.64;90.2168;962.3109;;;;
2019/05/22 05:02:58;;;;;;;68.5;46.8;;;;;;;11.58;90.76465;962.3317;;;;
2019/05/22 05:05:25;;;;;;;64.2;45.3;;;;;;;11.45;90.5498;962.3698;;;;
2019/05/22 05:07:48;;;;;;;70.1;47.6;;;;;;;11.42;91.27832;962.4255;;;;
2019/05/22 05:10:13;;;;;;;72.9;48.2;;;;;;;11.54;91.2832;962.3755;;;;
2019/05/22 05:12:41;;;;;;;61.7;45.3;;;;;;;11.58;90.38867;962.3836;;;;
2019/05/22 05:15:05;;;;;;;66.3;48.1;;;;;;;11.55;90.18457;962.4822;;;;
2019/05/22 05:17:28;;;;;;;61.2;45.6;;;;;;;11.59;90.21582;962.4045;;;;
2019/05/22 05:19:53;;;;;;;61.3;45;;;;;;;11.63;89.91113;962.4027;;;;
2019/05/22 05:22:19;;;;;;;62.7;45.5;;;;;;;11.72;89.7168;962.4011;;;;
2019/05/22 05:24:44;;;;;;;66.1;47.2;;;;;;;11.73;89.62695;962.3434;;;;
2019/05/22 05:27:09;;;;;;;69.4;48.9;;;;;;;11.86;89.27832;962.4011;;;;
2019/05/22 05:29:42;;;;;;;64.1;46.1;;;;;;;11.72;89.07422;962.418;;;;
2019/05/22 05:32:12;;;;;;;66.9;48;;;;;;;11.82;89.02539;962.4796;;;;
2019/05/22 05:34:37;;;;;;;72.6;48.9;;;;;;;11.81;88.90723;962.4755;;;;
2019/05/22 05:37:02;;;;;;;70.4;47.8;;;;;;;11.72;89.36621;962.4958;;;;
2019/05/22 05:39:30;;;;;;;69.7;48.1;;;;;;;11.56;90.24512;962.512;;;;
2019/05/22 05:42:20;;;;;;;64.7;46.3;;;;;;;11.67;89.96484;962.5106;;;;
2019/05/22 05:46:07;;;;;;;66.6;46.2;;;;;;;11.77;89.79785;962.4853;;;;
2019/05/22 05:48:36;;;;;;;69.5;47.6;;;;;;;11.78;89.45117;962.5182;;;;
2019/05/22 05:51:07;;;;;;;67.4;46.4;;;;;;;11.88;89.43457;962.55;;;;
2019/05/22 05:53:35;;;;;;;70.4;47.9;;;;;;;11.97;88.83398;962.6721;;;;
2019/05/22 05:56:00;;;;;;;72.6;47.6;;;;;;;12.07;88.05859;962.6426;;;;
2019/05/22 05:58:38;;;;;;;73;48.1;;;;;;;12.09;88.15723;962.6735;;;;
2019/05/22 06:01:07;;;;;;;71.6;48.3;;;;;;;12.07;88.38574;962.6646;;;;
2019/05/22 06:03:28;;;;;;;71.1;47.1;;;;;;;12.17;87.95117;962.6727;;;;
2019/05/22 06:05:54;;;;;;;71.6;50.7;;;;;;;12.33;87.44531;962.7562;;;;
2019/05/22 06:08:19;;;;;;;59.2;43.2;;;;;;;12.35;86.57031;962.7542;;;;
2019/05/22 06:10:44;;;;;;;60.5;43.5;;;;;;;12.36;86.32617;962.7352;;;;
2019/05/22 06:13:09;;;;;;;66.7;45.4;;;;;;;12.23;86.58105;962.7689;;;;
2019/05/22 06:15:35;;;;;;;60.2;42.9;;;;;;;12.29;87.15527;962.7832;;;;
2019/05/22 06:18:02;;;;;;;54.7;40.4;;;;;;;12.28;86.93066;962.8239;;;;
2019/05/22 06:20:27;;;;;;;55.7;39.8;;;;;;;12.19;87.23145;962.7997;;;;
2019/05/22 06:22:52;;;;;;;59.8;42.7;;;;;;;12.33;87;962.8083;;;;
2019/05/22 06:25:17;;;;;;;51.8;37.7;;;;;;;12.27;86.97559;962.8589;;;;
2019/05/22 06:27:52;;;;;;;60.8;43.1;;;;;;;12.29;87.08301;962.892;;;;
2019/05/22 06:30:20;;;;;;;55.4;40;;;;;;;12.23;87.30664;962.9247;;;;
2019/05/22 06:32:44;;;;;;;51.9;39.2;;;;;;;12.31;86.51465;962.9498;;;;
2019/05/22 06:36:40;;;;;;;55.2;40.1;;;;;;;12.26;86.55078;963.0167;;;;
2019/05/22 06:39:10;;;;;;;53.9;39.8;;;;;;;12.41;86.41895;962.9933;;;;
2019/05/22 06:41:34;;;;;;;53.9;39.8;;;;;;;12.5;85.88574;963.0034;;;;
2019/05/22 06:43:55;;;;;;;53.5;39.7;;;;;;;12.42;86.25488;963.0092;;;;
2019/05/22 06:46:20;;;;;;;53.7;40.5;;;;;;;12.51;85.34863;962.9756;;;;
2019/05/22 06:48:46;;;;;;;58.4;41;;;;;;;12.5;85.4873;962.9255;;;;
2019/05/22 06:51:11;;;;;;;54.3;41.4;;;;;;;12.32;86.72852;963.0689;;;;
2019/05/22 06:53:37;;;;;;;55.3;41.9;;;;;;;12.36;85.93945;962.9772;;;;
2019/05/22 06:56:03;;;;;;;56.3;42.1;;;;;;;12.4;86.35645;963.0422;;;;
2019/05/22 06:58:28;;;;;;;57;42.4;;;;;;;12.69;85.35059;963.0258;;;;
2019/05/22 07:00:53;;;;;;;52;40.4;;;;;;;12.85;84.59473;963.0012;;;;
2019/05/22 07:03:18;;;;;;;53.2;38.5;;;;;;;12.81;83.30957;963.1451;;;;
2019/05/22 07:05:44;;;;;;;50.6;39.4;;;;;;;12.82;83.70996;963.0441;;;;
2019/05/22 07:08:09;;;;;;;49.4;38.7;;;;;;;12.87;83.02832;963.072;;;;
2019/05/22 07:10:34;;;;;;;50;39.4;;;;;;;12.99;83.26172;963.1041;;;;
2019/05/22 07:13:13;;;;;;;49.1;38;;;;;;;12.96;82.72949;963.087;;;;
2019/05/22 07:15:45;;;;;;;54.5;40.8;;;;;;;12.9;84.13574;963.0602;;;;
2019/05/22 07:18:06;;;;;;;52.6;39.3;;;;;;;12.84;83.90234;963.0759;;;;
2019/05/22 07:20:32;;;;;;;55.7;40.9;;;;;;;12.69;85.09082;963.0697;;;;
2019/05/22 07:22:57;;;;;;;59.6;43.7;;;;;;;12.52;85.55176;963.1733;;;;
2019/05/22 07:25:23;;;;;;;61.7;43.5;;;;;;;12.56;85.20703;963.1814;;;;
2019/05/22 07:27:57;;;;;;;66.7;45.3;;;;;;;12.66;84.40625;963.2078;;;;
2019/05/22 07:30:21;;;;;;;62.9;44.6;;;;;;;12.53;85.31738;963.2553;;;;
2019/05/22 07:32:46;;;;;;;61.9;44.1;;;;;;;12.59;85.49316;963.1996;;;;
2019/05/22 07:35:12;;;;;;;61.5;43.8;;;;;;;12.6;84.54785;963.2104;;;;
2019/05/22 07:37:37;;;;;;;66.6;45.9;;;;;;;12.46;85.67773;963.2291;;;;
2019/05/22 07:40:02;;;;;;;61.2;43.3;;;;;;;12.45;85.70117;963.247;;;;
2019/05/22 07:42:27;;;;;;;63.8;44.5;;;;;;;12.33;86.15723;963.3016;;;;
2019/05/22 07:44:52;;;;;;;64.5;44.7;;;;;;;12.23;86.38184;963.2542;;;;
2019/05/22 07:47:35;;;;;;;63.9;43.8;;;;;;;12.33;86.02832;963.2626;;;;
2019/05/22 07:50:00;;;;;;;68.1;45.9;;;;;;;12.53;86.05469;963.3412;;;;
2019/05/22 07:52:26;;;;;;;64.6;43.6;;;;;;;12.53;85.04785;963.3242;;;;
2019/05/22 07:54:51;;;;;;;64.7;45.7;;;;;;;12.54;85.08496;963.3011;;;;
2019/05/22 07:57:35;;;;;;;64.6;45.5;;;;;;;12.58;85.52637;963.3092;;;;
2019/05/22 08:00:02;;;;;;;68.9;47.4;;;;;;;12.48;85.53125;963.3041;;;;
2019/05/22 08:02:30;;;;;;;69.9;47.3;;;;;;;12.36;85.74121;963.3544;;;;
2019/05/22 08:05:08;;;;;;;64;45.4;;;;;;;12.38;85.52344;963.3945;;;;
2019/05/22 08:07:41;;;;;;;60.9;42.4;;;;;;;12.35;85.1084;963.3764;;;;
2019/05/22 08:10:06;;;;;;;59.6;44.6;;;;;;;12.37;85.75586;963.3697;;;;
2019/05/22 08:12:37;;;;;;;59.4;43.7;;;;;;;12.52;84.60254;963.4291;;;;
2019/05/22 08:15:07;;;;;;;57.4;41.3;;;;;;;12.66;84.01953;963.3594;;;;
2019/05/22 08:17:33;;;;;;;56.5;42.2;;;;;;;12.52;84.18066;963.4331;;;;
2019/05/22 08:19:58;;;;;;;55.8;40.7;;;;;;;12.56;83.19238;963.4932;;;;
2019/05/22 08:22:25;;;;;;;56.5;40.7;;;;;;;12.27;84.25977;963.504;;;;
2019/05/22 08:24:50;;;;;;;53.9;39;;;;;;;12.32;84.50488;963.4066;;;;
2019/05/22 08:27:15;;;;;;;50;37.5;;;;;;;12.45;83.65039;963.4429;;;;
2019/05/22 08:29:41;;;;;;;47.2;36.5;;;;;;;12.65;83.37305;963.4514;;;;
2019/05/22 08:32:06;;;;;;;45.7;35.9;;;;;;;12.69;83.14746;963.4545;;;;
2019/05/22 08:34:31;;;;;;;44.1;34.5;;;;;;;12.84;81.44141;963.4698;;;;
2019/05/22 08:36:56;;;;;;;41.7;34;;;;;;;13.05;80.72754;963.4744;;;;
2019/05/22 08:39:23;;;;;;;44.1;34.9;;;;;;;12.95;81.84766;963.456;;;;
2019/05/22 08:42:00;;;;;;;46.9;36.4;;;;;;;12.92;81.80762;963.4472;;;;
2019/05/22 08:44:25;;;;;;;46.8;37.1;;;;;;;12.69;82.59473;963.4764;;;;
2019/05/22 08:46:52;;;;;;;49.7;37.3;;;;;;;12.73;83.0957;963.4755;;;;
2019/05/22 08:49:17;;;;;;;48.7;39.1;;;;;;;12.78;83.45703;963.5168;;;;
2019/05/22 08:51:42;;;;;;;48.9;37.5;;;;;;;12.64;82.43262;963.4704;;;;
2019/05/22 08:54:07;;;;;;;50.8;38.9;;;;;;;12.79;83.30469;963.5078;;;;
2019/05/22 08:56:32;;;;;;;48.5;37.3;;;;;;;13.12;81.26953;963.4524;;;;
2019/05/22 08:58:58;;;;;;;48.2;37.7;;;;;;;13.28;80.17285;963.4748;;;;
2019/05/22 09:01:23;;;;;;;48.2;38.4;;;;;;;13.35;79.6582;963.5569;;;;
2019/05/22 09:03:59;;;;;;;50.6;38.9;;;;;;;13.27;79.92383;963.6369;;;;
2019/05/22 09:06:24;;;;;;;52.6;41.1;;;;;;;13.13;80.77734;963.6244;;;;
2019/05/22 09:08:50;;;;;;;55;39.7;;;;;;;13.2;80.52246;963.5975;;;;
2019/05/22 09:11:16;;;;;;;51.4;39.1;;;;;;;13.24;80.31738;963.5798;;;;
2019/05/22 09:13:42;;;;;;;48.7;39.1;;;;;;;13.42;80.14063;963.6389;;;;
2019/05/22 09:16:07;;;;;;;49.8;38.6;;;;;;;13.43;78.89844;963.6328;;;;
2019/05/22 09:18:32;;;;;;;50.6;39.5;;;;;;;13.23;80.24512;963.6369;;;;
2019/05/22 09:20:57;;;;;;;52;39.7;;;;;;;13.08;80.67676;963.6903;;;;
2019/05/22 09:23:23;;;;;;;55.6;41;;;;;;;13.09;81.19434;963.6683;;;;
2019/05/22 09:25:48;;;;;;;54;39.3;;;;;;;13.16;80.36133;963.7505;;;;
2019/05/22 09:28:13;;;;;;;51.9;39.5;;;;;;;13.14;80.71191;963.7003;;;;
2019/05/22 09:30:38;;;;;;;55.6;41.2;;;;;;;13.22;79.87012;963.6726;;;;
2019/05/22 09:33:03;;;;;;;55.2;39.5;;;;;;;13.3;79.76758;963.7099;;;;
2019/05/22 09:35:28;;;;;;;47.5;38;;;;;;;13.25;79.62891;963.6777;;;;
2019/05/22 09:37:53;;;;;;;52.2;39.6;;;;;;;13.5;79.11035;963.7098;;;;
2019/05/22 09:40:18;;;;;;;49.2;37.1;;;;;;;13.53;78.36426;963.698;;;;
2019/05/22 09:42:43;;;;;;;47;36.4;;;;;;;13.75;77.76953;963.7378;;;;
2019/05/22 09:45:08;;;;;;;47.8;36;;;;;;;13.75;78.2041;963.7559;;;;
2019/05/22 09:47:33;;;;;;;41.1;33.3;;;;;;;13.95;76.16211;963.7805;;;;
2019/05/22 09:49:59;;;;;;;40.6;33.5;;;;;;;14.12;76.47168;963.7712;;;;
2019/05/22 09:52:24;;;;;;;42.1;33.3;;;;;;;14.69;74.12305;963.7917;;;;
2019/05/22 09:54:49;;;;;;;43.8;34.5;;;;;;;14.55;74.88867;963.8613;;;;
2019/05/22 09:57:14;;;;;;;40;31.7;;;;;;;14.32;74.57715;963.8969;;;;
2019/05/22 09:59:39;;;;;;;39.4;31;;;;;;;14.15;75.2793;963.8502;;;;
2019/05/22 10:02:05;;;;;;;40.3;31.9;;;;;;;14.21;75.26465;963.9163;;;;
2019/05/22 10:04:30;;;;;;;39.3;32.1;;;;;;;14.25;76.30566;963.8591;;;;
2019/05/22 10:06:59;;;;;;;37.7;30.7;;;;;;;14.37;75.94043;963.8635;;;;
2019/05/22 10:09:35;;;;;;;36.2;28.6;;;;;;;14;75.72266;963.9739;;;;
2019/05/22 10:12:01;;;;;;;36.1;30.3;;;;;;;14.13;76.5791;963.9745;;;;
2019/05/22 10:14:25;;;;;;;34.6;29.4;;;;;;;13.79;77.14258;963.9631;;;;
2019/05/22 10:17:04;;;;;;;34.9;28.7;;;;;;;13.93;76.96777;964.0011;;;;
2019/05/22 10:19:39;;;;;;;34.9;30.2;;;;;;;13.72;77.64746;963.92;;;;
2019/05/22 10:22:04;;;;;;;42.4;29.9;;;;;;;13.64;78.01855;963.9091;;;;
2019/05/22 10:24:31;;;;;;;40.3;31.1;;;;;;;13.55;78.84961;963.9509;;;;
2019/05/22 10:26:56;;;;;;;39.8;30.8;;;;;;;13.65;79.05371;963.9861;;;;
2019/05/22 10:29:21;;;;;;;37.9;30.4;;;;;;;13.54;79.16504;964.0302;;;;
2019/05/22 10:31:53;;;;;;;40.2;30.8;;;;;;;13.52;79.31445;964.1193;;;;
2019/05/22 10:34:26;;;;;;;35.3;29.4;;;;;;;13.61;79.03613;964.1172;;;;
2019/05/22 10:36:52;;;;;;;34.9;29.1;;;;;;;13.55;78.03809;964.1682;;;;
2019/05/22 10:39:17;;;;;;;37.4;29.5;;;;;;;13.65;77.65625;964.0513;;;;
2019/05/22 10:41:45;;;;;;;36.4;28.7;;;;;;;13.38;77.84375;964.0991;;;;
2019/05/22 10:44:27;;;;;;;36.6;29.5;;;;;;;13.69;77.69922;964.1672;;;;
2019/05/22 10:46:52;;;;;;;34.9;29.4;;;;;;;13.85;76.84863;964.1631;;;;
2019/05/22 10:49:17;;;;;;;36.1;29.5;;;;;;;13.96;76.33789;964.196;;;;
2019/05/22 10:51:42;;;;;;;36.1;29.7;;;;;;;14.32;75.00098;964.1795;;;;
2019/05/22 10:54:07;;;;;;;35.9;27.9;;;;;;;14.6;74.21387;964.2119;;;;
2019/05/22 10:56:33;;;;;;;34.7;28.4;;;;;;;14.46;73.64844;964.2042;;;;
2019/05/22 10:58:58;;;;;;;35.9;28.2;;;;;;;14.44;73.31738;964.2191;;;;
2019/05/22 11:01:23;;;;;;;34;28.4;;;;;;;14.4;73.29785;964.1591;;;;
2019/05/22 11:03:48;;;;;;;30.9;27.5;;;;;;;14.4;73.7207;964.1602;;;;
2019/05/22 11:06:13;;;;;;;33;27.4;;;;;;;14.43;73.50391;964.1942;;;;
2019/05/22 11:08:38;;;;;;;31.7;27.6;;;;;;;14.81;72.33008;964.2181;;;;
2019/05/22 11:11:03;;;;;;;30.2;26.6;;;;;;;14.61;72.5791;964.176;;;;
2019/05/22 11:13:29;;;;;;;52.7;40;;;;;;;14.6;72.70703;964.1858;;;;
2019/05/22 11:15:54;;;;;;;34.9;30.3;;;;;;;14.83;72.39258;964.2634;;;;
2019/05/22 11:18:19;;;;;;;35.7;29;;;;;;;14.83;72.47461;964.2151;;;;
2019/05/22 11:20:44;;;;;;;33.3;29.5;;;;;;;14.78;71.79492;964.2263;;;;
2019/05/22 11:23:09;;;;;;;33.9;30.2;;;;;;;14.59;71.63477;964.2;;;;
2019/05/22 11:25:34;;;;;;;33.3;29.5;;;;;;;14.61;72.14551;964.18;;;;
2019/05/22 11:27:59;;;;;;;36.6;32.7;;;;;;;14.82;71.00098;964.217;;;;
2019/05/22 11:30:24;;;;;;;34.1;30;;;;;;;14.95;70.38672;964.1814;;;;
2019/05/22 11:32:50;;;;;;;37.8;33.3;;;;;;;15.34;70.53223;964.2022;;;;
2019/05/22 11:35:15;;;;;;;34.6;29.7;;;;;;;15.24;69.7959;964.2422;;;;
2019/05/22 11:37:40;;;;;;;35.2;31.6;;;;;;;15.07;69.64063;964.1476;;;;
2019/05/22 11:40:05;;;;;;;32.5;29.1;;;;;;;14.9;70.25;964.1225;;;;
2019/05/22 11:42:30;;;;;;;34.4;29.7;;;;;;;15.26;70.47266;964.2126;;;;
2019/05/22 11:44:55;;;;;;;32.8;28.7;;;;;;;15.2;68.97754;964.1652;;;;
2019/05/22 11:47:21;;;;;;;31.6;28.3;;;;;;;15.08;69.10059;964.2026;;;;
2019/05/22 11:49:46;;;;;;;32.6;28.6;;;;;;;14.97;70;964.2184;;;;
2019/05/22 11:52:12;;;;;;;32.5;29;;;;;;;14.88;71.49414;964.286;;;;
2019/05/22 11:54:36;;;;;;;32.2;28.8;;;;;;;14.94;71.02148;964.2086;;;;
2019/05/22 11:57:01;;;;;;;32.3;28.9;;;;;;;14.92;70.58105;964.3029;;;;
2019/05/22 11:59:27;;;;;;;32.4;28.5;;;;;;;14.95;70.24609;964.2556;;;;
2019/05/22 12:01:52;;;;;;;30.6;27.4;;;;;;;15.02;69.92676;964.2673;;;;
2019/05/22 12:04:17;;;;;;;33.3;28.9;;;;;;;14.88;70.42285;964.3772;;;;
2019/05/22 12:06:42;;;;;;;31.1;27.8;;;;;;;14.79;71.19727;964.3858;;;;
2019/05/22 12:09:08;;;;;;;31;27.8;;;;;;;14.75;70.93066;964.3828;;;;
2019/05/22 12:11:33;;;;;;;31.2;27.9;;;;;;;14.61;70.61426;964.3454;;;;
2019/05/22 12:13:58;;;;;;;32.2;28.8;;;;;;;14.47;71.60449;964.4196;;;;
2019/05/22 12:16:23;;;;;;;32.9;28.8;;;;;;;14.65;71.69336;964.4473;;;;
2019/05/22 12:18:48;;;;;;;32.7;29.3;;;;;;;14.47;71.96777;964.3986;;;;
2019/05/22 12:21:13;;;;;;;34.1;30.4;;;;;;;14.43;73.02051;964.3986;;;;
2019/05/22 12:23:38;;;;;;;33.6;30;;;;;;;14.52;72.97754;964.3995;;;;
2019/05/22 12:26:04;;;;;;;35.1;31.1;;;;;;;14.56;73.26465;964.3773;;;;
2019/05/22 12:28:29;;;;;;;34;29.9;;;;;;;14.04;74.4248;964.4897;;;;
2019/05/22 12:30:55;;;;;;;38.3;31.7;;;;;;;14.09;74.1748;964.4094;;;;
2019/05/22 12:33:21;;;;;;;35.1;31.5;;;;;;;14.07;74.00586;964.4644;;;;
2019/05/22 12:35:47;;;;;;;36.4;30.5;;;;;;;14.19;73.80371;964.4133;;;;
2019/05/22 12:38:12;;;;;;;34.9;30.7;;;;;;;14.46;73.86133;964.4337;;;;
2019/05/22 12:40:37;;;;;;;35.4;31.6;;;;;;;14.25;74.16504;964.4972;;;;
2019/05/22 12:43:03;;;;;;;38.9;31.1;;;;;;;14.19;74.35645;964.5222;;;;
2019/05/22 12:45:28;;;;;;;37.7;31.7;;;;;;;13.92;74.78125;964.4875;;;;
2019/05/22 12:47:53;;;;;;;36.8;30.7;;;;;;;13.93;75.25293;964.5648;;;;
2019/05/22 12:50:18;;;;;;;37.8;30.6;;;;;;;13.84;75.43555;964.5726;;;;
2019/05/22 12:52:43;;;;;;;35.7;30.1;;;;;;;13.79;75.72168;964.6269;;;;
2019/05/22 12:55:08;;;;;;;35.5;29.5;;;;;;;13.93;75.0293;964.5608;;;;
2019/05/22 12:57:33;;;;;;;34.5;28.3;;;;;;;13.9;75.41113;964.5608;;;;
2019/05/22 12:59:59;;;;;;;38.4;29.3;;;;;;;14.17;74.49414;964.4944;;;;
2019/05/22 13:02:24;;;;;;;36.1;28.7;;;;;;;14.16;74.05762;964.5605;;;;
2019/05/22 13:04:50;;;;;;;35.2;28.9;;;;;;;14.25;73.82422;964.6144;;;;
2019/05/22 13:07:15;;;;;;;33.9;29;;;;;;;14.34;74.08789;964.55;;;;
2019/05/22 13:09:40;;;;;;;31.1;27;;;;;;;14.19;73.56836;964.6135;;;;
2019/05/22 13:12:07;;;;;;;29.1;26;;;;;;;14.34;72.98242;964.5022;;;;
2019/05/22 13:14:31;;;;;;;29;25.9;;;;;;;14.56;73.0293;964.5467;;;;
2019/05/22 13:16:57;;;;;;;29.3;26.2;;;;;;;14.68;72.6377;964.4835;;;;
2019/05/22 13:19:22;;;;;;;30.7;26;;;;;;;14.78;71.19434;964.4959;;;;
2019/05/22 13:21:47;;;;;;;27.1;24.3;;;;;;;14.96;70.58887;964.4892;;;;
2019/05/22 13:24:16;;;;;;;27.8;24.7;;;;;;;15.03;70.15234;964.4619;;;;
2019/05/22 13:26:38;;;;;;;27.7;24.8;;;;;;;15.35;69.37695;964.4228;;;;
2019/05/22 13:29:03;;;;;;;26.7;23.9;;;;;;;15.38;68.11035;964.5353;;;;
2019/05/22 13:31:28;;;;;;;26.1;22.8;;;;;;;15.39;69.24414;964.4871;;;;
2019/05/22 13:33:53;;;;;;;25.7;21.8;;;;;;;15.53;68.28711;964.5542;;;;
2019/05/22 13:36:18;;;;;;;24.4;21.9;;;;;;;15.49;68.36133;964.5385;;;;
2019/05/22 13:38:43;;;;;;;24.7;22.1;;;;;;;15.84;67.40234;964.4902;;;;
2019/05/22 13:41:08;;;;;;;23.3;20.9;;;;;;;16.18;65.48242;964.455;;;;
2019/05/22 13:43:34;;;;;;;27.1;19.3;;;;;;;16.2;64.41113;964.5128;;;;
2019/05/22 13:45:59;;;;;;;25.2;18.5;;;;;;;16.21;64.11621;964.5251;;;;
2019/05/22 13:48:24;;;;;;;26.9;19;;;;;;;17.47;60.81836;964.5323;;;;
2019/05/22 13:50:49;;;;;;;25.8;18.4;;;;;;;17.79;59.87891;964.4384;;;;
2019/05/22 13:53:15;;;;;;;22.7;20.1;;;;;;;17.55;59.22949;964.5294;;;;
2019/05/22 13:55:40;;;;;;;23.8;19.7;;;;;;;17.21;60.57031;964.4523;;;;
2019/05/22 13:58:04;;;;;;;21.6;19.3;;;;;;;17.12;61.48047;964.4959;;;;
2019/05/22 14:00:30;;;;;;;21.6;19.4;;;;;;;17.52;59.72363;964.4814;;;;
2019/05/22 14:02:55;;;;;;;21.1;18.8;;;;;;;17.55;60.13086;964.4557;;;;
2019/05/22 14:05:20;;;;;;;21.2;19;;;;;;;17.64;60.39258;964.4464;;;;
2019/05/22 14:07:45;;;;;;;21.5;19.3;;;;;;;17.45;60.72168;964.3918;;;;
2019/05/22 14:10:10;;;;;;;21.7;19.4;;;;;;;17.83;59.20801;964.4327;;;;
2019/05/22 14:12:35;;;;;;;22.6;19.8;;;;;;;18.08;58.79102;964.3561;;;;
2019/05/22 14:15:00;;;;;;;21.6;18.5;;;;;;;18.52;57.51953;964.3641;;;;
2019/05/22 14:17:26;;;;;;;20.4;18.2;;;;;;;18.26;57.40234;964.4031;;;;
2019/05/22 14:19:51;;;;;;;19.4;17.3;;;;;;;18.23;57.03125;964.4341;;;;
2019/05/22 14:22:17;;;;;;;21;18.4;;;;;;;18.35;57.49707;964.3986;;;;
2019/05/22 14:24:42;;;;;;;19.2;16.8;;;;;;;18.14;57.12695;964.3769;;;;
2019/05/22 14:27:07;;;;;;;19.1;16.1;;;;;;;18.11;56.38672;964.3948;;;;
2019/05/22 14:29:34;;;;;;;17.6;15.9;;;;;;;17.91;57.85547;964.4163;;;;
2019/05/22 14:31:59;;;;;;;17.2;15.4;;;;;;;17.27;58.59961;964.348;;;;
2019/05/22 14:34:27;;;;;;;24.1;15;;;;;;;17.1;59.48828;964.4469;;;;
2019/05/22 14:36:53;;;;;;;17.5;14.6;;;;;;;17.45;58.15039;964.5347;;;;
2019/05/22 14:39:18;;;;;;;14.9;13.5;;;;;;;16.95;59.4209;964.4547;;;;
2019/05/22 14:41:43;;;;;;;14.3;12.6;;;;;;;17.14;58.57129;964.4758;;;;
2019/05/22 14:44:08;;;;;;;13.8;12.4;;;;;;;17.11;59.38379;964.5023;;;;
2019/05/22 14:46:33;;;;;;;13.3;12;;;;;;;17.31;59.54102;964.5126;;;;
2019/05/22 14:48:58;;;;;;;14.4;11.5;;;;;;;17.07;60.01758;964.4766;;;;
2019/05/22 14:51:23;;;;;;;11.8;10.3;;;;;;;17.02;60.23535;964.4841;;;;
2019/05/22 14:53:49;;;;;;;12.8;11.1;;;;;;;16.9;60.69141;964.5017;;;;
2019/05/22 14:56:13;;;;;;;12.5;10.7;;;;;;;16.69;61.49121;964.5443;;;;
2019/05/22 14:58:39;;;;;;;12.2;9.7;;;;;;;16.61;60.22656;964.6334;;;;
2019/05/22 15:01:04;;;;;;;11.4;10.2;;;;;;;16.45;60.80762;964.5256;;;;
2019/05/22 15:03:29;;;;;;;11.4;10.2;;;;;;;16.59;60.58984;964.5583;;;;
2019/05/22 15:05:54;;;;;;;12.4;10.6;;;;;;;17.24;60.19434;964.4833;;;;
2019/05/22 15:08:19;;;;;;;12.4;11.1;;;;;;;17.3;59.92969;964.4745;;;;
2019/05/22 15:10:44;;;;;;;11.7;10.5;;;;;;;17.7;59.42773;964.5209;;;;
2019/05/22 15:13:11;;;;;;;13.1;11.4;;;;;;;17.73;58.55469;964.5125;;;;
2019/05/22 15:15:36;;;;;;;12.3;11.1;;;;;;;17.84;58.1416;964.4749;;;;
2019/05/22 15:18:01;;;;;;;12.7;11.4;;;;;;;17.6;59.22559;964.5266;;;;
2019/05/22 15:20:33;;;;;;;13.3;12;;;;;;;17.29;59.55078;964.4584;;;;
2019/05/22 15:22:52;;;;;;;13.1;11.8;;;;;;;17.29;59.47949;964.5059;;;;
2019/05/22 15:25:19;;;;;;;14.7;13.2;;;;;;;16.75;60.97949;964.5317;;;;
2019/05/22 15:27:44;;;;;;;14.7;13.1;;;;;;;16.79;60.95996;964.5615;;;;
2019/05/22 15:30:10;;;;;;;15.3;13;;;;;;;16.68;61.06348;964.5764;;;;
2019/05/22 15:32:36;;;;;;;13.7;12.1;;;;;;;17.2;59.64551;964.5098;;;;
2019/05/22 15:35:01;;;;;;;13.2;11.8;;;;;;;17.13;59.40918;964.5158;;;;
2019/05/22 15:37:26;;;;;;;12.6;11.4;;;;;;;17.27;58.43359;964.4528;;;;
2019/05/22 15:39:51;;;;;;;13.9;11.7;;;;;;;16.69;61.06543;964.4437;;;;
2019/05/22 15:42:16;;;;;;;12.1;10.9;;;;;;;17.63;59.22754;964.5142;;;;
2019/05/22 15:44:41;;;;;;;12.6;10.3;;;;;;;17.9;57.75977;964.5;;;;
2019/05/22 15:47:06;;;;;;;12;10.7;;;;;;;17.67;56.95898;964.5295;;;;
2019/05/22 15:49:32;;;;;;;10.7;9.6;;;;;;;17.99;55.93164;964.5267;;;;
2019/05/22 15:51:56;;;;;;;10.7;9.6;;;;;;;18.53;54.08984;964.5336;;;;
2019/05/22 15:54:22;;;;;;;9.9;8.9;;;;;;;18.46;53.33301;964.6003;;;;
2019/05/22 15:56:47;;;;;;;11.9;9.2;;;;;;;18.58;54.55859;964.5345;;;;
2019/05/22 15:59:14;;;;;;;10.2;9.2;;;;;;;18.75;53.52246;964.5175;;;;
2019/05/22 16:01:39;;;;;;;9.2;8.3;;;;;;;19.06;52.3125;964.5444;;;;
2019/05/22 16:04:04;;;;;;;9.9;8.4;;;;;;;18.77;52.32617;964.4221;;;;
2019/05/22 16:06:29;;;;;;;11.5;9.5;;;;;;;18.15;55.30078;964.5201;;;;